Time;durP1;ratioP1;P1;durP2;ratioP2;P2;SDS_P1;SDS_P2;PMS_P1;PMS_P2;Temp;Humidity;BMP_temperature;BMP_pressure;BME280_temperature;BME280_humidity;BME280_pressure;Samples;Min_cycle;Max_cycle;Signal;HPM_P1;HPM_P2
2022/12/29 00:00:19;;;;;;;3.63;3.33;;;9.40;99.90;;;;;;4987519;28;20323;-70
2022/12/29 00:02:46;;;;;;;3.33;3.03;;;9.40;99.90;;;;;;4996889;28;20226;-70
2022/12/29 00:05:14;;;;;;;4.55;3.33;;;9.50;99.90;;;;;;4980629;28;20298;-70
2022/12/29 00:07:41;;;;;;;4.60;3.67;;;9.50;99.90;;;;;;4986506;28;20257;-69
2022/12/29 00:10:08;;;;;;;3.97;3.27;;;9.40;99.90;;;;;;4983109;28;20260;-70
2022/12/29 00:18:00;;;;;;;3.75;3.45;;;9.40;99.90;;;;;;5002258;28;21262;-70
2022/12/29 00:36:58;;;;;;;7.00;3.50;;;9.50;99.90;;;;;;4975480;28;20840;-70
2022/12/29 00:44:55;;;;;;;4.30;3.92;;;9.50;99.90;;;;;;4997819;28;20205;-70
2022/12/29 00:47:21;;;;;;;4.72;3.53;;;9.50;99.90;;;;;;4983743;28;20292;-70
2022/12/29 00:49:47;;;;;;;4.68;4.28;;;9.50;99.90;;;;;;5000890;28;20285;-70
2022/12/29 00:52:15;;;;;;;4.30;3.90;;;9.60;99.90;;;;;;4986892;28;20998;-72
2022/12/29 00:54:44;;;;;;;4.50;4.10;;;9.60;99.90;;;;;;4986259;28;20301;-70
2022/12/29 00:57:12;;;;;;;4.45;4.05;;;9.60;99.90;;;;;;4970072;28;20214;-69
2022/12/29 00:59:40;;;;;;;3.72;3.42;;;9.60;99.90;;;;;;4999249;28;20229;-70
2022/12/29 01:02:07;;;;;;;4.97;4.50;;;9.60;99.90;;;;;;4985975;28;20404;-70
2022/12/29 01:04:35;;;;;;;4.60;4.15;;;9.60;99.90;;;;;;4999807;28;20631;-69
2022/12/29 01:07:02;;;;;;;4.57;4.18;;;9.60;99.90;;;;;;4987096;28;20238;-69
2022/12/29 01:12:14;;;;;;;4.90;4.07;;;9.60;99.90;;;;;;4971013;28;20377;-70
2022/12/29 01:14:41;;;;;;;7.60;4.40;;;9.60;99.90;;;;;;4991708;28;20293;-70
2022/12/29 01:17:08;;;;;;;5.50;4.07;;;9.70;99.90;;;;;;4983249;28;20350;-70
2022/12/29 01:19:35;;;;;;;5.20;4.68;;;9.70;99.90;;;;;;4996746;28;20298;-70
2022/12/29 01:22:02;;;;;;;4.32;3.92;;;9.70;99.90;;;;;;4985735;28;20327;-70
2022/12/29 01:24:31;;;;;;;5.70;5.00;;;9.60;99.90;;;;;;4987823;28;20305;-70
2022/12/29 01:26:57;;;;;;;5.10;4.50;;;9.60;99.90;;;;;;4998704;28;20294;-70
2022/12/29 01:29:24;;;;;;;8.32;4.75;;;9.70;99.90;;;;;;4973945;28;20329;-70
2022/12/29 01:31:52;;;;;;;5.43;4.93;;;9.70;99.90;;;;;;4994033;28;20289;-70
2022/12/29 01:34:19;;;;;;;8.60;5.57;;;9.70;99.90;;;;;;4992525;28;20248;-70
2022/12/29 01:36:45;;;;;;;5.30;4.80;;;9.70;99.90;;;;;;4990447;28;20349;-70
2022/12/29 01:39:12;;;;;;;5.85;5.35;;;9.70;99.90;;;;;;4996229;28;20285;-70
2022/12/29 01:41:41;;;;;;;4.90;4.45;;;9.70;99.90;;;;;;4989148;28;20297;-70
2022/12/29 01:44:49;;;;;;;4.68;4.28;;;9.70;99.90;;;;;;4971414;28;22596;-70
2022/12/29 01:47:21;;;;;;;5.18;4.72;;;9.70;99.90;;;;;;4998014;28;20670;-70
2022/12/29 01:49:48;;;;;;;6.82;4.68;;;9.80;99.90;;;;;;4990730;28;20288;-70
2022/12/29 01:52:15;;;;;;;4.65;4.25;;;9.80;99.90;;;;;;4990763;28;20301;-70
2022/12/29 01:54:46;;;;;;;5.28;4.78;;;9.80;99.90;;;;;;4996122;28;20294;-70
2022/12/29 01:57:19;;;;;;;4.93;4.43;;;9.70;99.90;;;;;;4988668;28;20321;-69
2022/12/29 01:59:52;;;;;;;4.95;4.45;;;9.70;99.90;;;;;;4995751;28;20326;-70
2022/12/29 02:02:19;;;;;;;6.15;4.50;;;9.80;99.90;;;;;;4981433;28;20202;-70
2022/12/29 02:04:46;;;;;;;4.00;3.70;;;9.80;99.90;;;;;;4988411;28;20233;-70
2022/12/29 02:07:18;;;;;;;4.50;4.00;;;9.80;99.90;;;;;;4975288;28;20301;-70
2022/12/29 02:09:47;;;;;;;5.47;3.70;;;9.80;99.90;;;;;;5001413;28;20293;-70
2022/12/29 02:12:16;;;;;;;4.32;3.40;;;9.80;99.90;;;;;;4979142;28;20341;-70
2022/12/29 02:14:43;;;;;;;4.25;3.60;;;9.90;99.90;;;;;;4996976;28;20229;-70
2022/12/29 02:17:19;;;;;;;4.07;3.67;;;9.90;99.90;;;;;;4970756;28;20238;-70
2022/12/29 02:20:38;;;;;;;4.53;3.83;;;9.90;99.90;;;;;;4985907;28;20249;-70
2022/12/29 02:23:24;;;;;;;3.63;3.33;;;9.90;99.90;;;;;;4987422;28;20765;-69
2022/12/29 02:26:15;;;;;;;4.03;3.63;;;9.90;99.90;;;;;;4984823;28;20297;-70
2022/12/29 02:29:17;;;;;;;5.78;3.90;;;10.00;99.90;;;;;;4987421;28;21177;-70
2022/12/29 02:31:50;;;;;;;7.53;3.70;;;10.00;99.90;;;;;;4964434;28;20207;-70
2022/12/29 02:34:25;;;;;;;4.25;3.55;;;10.00;99.90;;;;;;4996923;28;20282;-70
2022/12/29 02:37:03;;;;;;;7.43;3.53;;;10.00;99.90;;;;;;4987229;28;20233;-70
2022/12/29 02:39:41;;;;;;;3.28;2.97;;;10.00;99.90;;;;;;4975304;28;20300;-70
2022/12/29 02:42:15;;;;;;;5.43;3.30;;;10.00;99.90;;;;;;4990732;28;20616;-70
2022/12/29 02:44:52;;;;;;;3.72;3.17;;;10.00;99.90;;;;;;4982973;28;20203;-70
2022/12/29 02:47:28;;;;;;;3.88;3.17;;;10.10;99.90;;;;;;4967614;28;20216;-70
2022/12/29 02:50:02;;;;;;;3.22;2.95;;;10.10;99.90;;;;;;4999171;28;20292;-70
2022/12/29 02:52:35;;;;;;;4.63;2.90;;;10.00;99.90;;;;;;4980935;28;20297;-70
2022/12/29 02:55:00;;;;;;;3.38;3.05;;;10.10;99.90;;;;;;4981114;28;20345;-70
2022/12/29 02:57:33;;;;;;;3.40;3.10;;;10.00;99.90;;;;;;4975740;28;20231;-70
2022/12/29 03:00:04;;;;;;;2.92;2.72;;;10.10;99.90;;;;;;5001063;28;20293;-70
2022/12/29 03:02:58;;;;;;;2.90;2.60;;;10.10;99.90;;;;;;4958517;28;20238;-70
2022/12/29 03:05:50;;;;;;;2.92;2.63;;;10.10;99.90;;;;;;5013193;28;20270;-70
2022/12/29 03:08:24;;;;;;;3.67;2.50;;;10.10;99.90;;;;;;4993166;28;20315;-70
2022/12/29 03:10:58;;;;;;;2.90;2.70;;;10.10;99.90;;;;;;5012393;28;20224;-70
2022/12/29 03:16:22;;;;;;;2.95;2.72;;;10.20;99.90;;;;;;5011073;28;20249;-70
2022/12/29 03:18:58;;;;;;;3.03;2.75;;;10.10;99.90;;;;;;4986726;28;20295;-70
2022/12/29 03:24:35;;;;;;;4.10;3.25;;;10.20;99.90;;;;;;4961713;28;20270;-70
2022/12/29 03:27:06;;;;;;;3.80;3.40;;;10.20;99.90;;;;;;4974957;28;20345;-70
2022/12/29 03:29:36;;;;;;;3.45;2.97;;;10.10;99.90;;;;;;4978001;28;20209;-70
2022/12/29 03:32:05;;;;;;;3.28;2.97;;;10.20;99.90;;;;;;5015306;28;20351;-70
2022/12/29 03:34:35;;;;;;;3.17;2.90;;;10.20;99.90;;;;;;4986539;28;20296;-70
2022/12/29 03:37:09;;;;;;;4.95;3.30;;;10.20;99.90;;;;;;5002996;28;20317;-70
2022/12/29 03:39:36;;;;;;;3.50;3.20;;;10.10;99.90;;;;;;4989662;28;20197;-70
2022/12/29 03:42:07;;;;;;;3.35;3.05;;;10.20;99.90;;;;;;5013638;28;20305;-70
2022/12/29 03:44:36;;;;;;;4.95;3.20;;;10.20;99.90;;;;;;4997811;28;20304;-70
2022/12/29 03:47:03;;;;;;;3.45;3.15;;;10.20;99.90;;;;;;5016715;28;20224;-70
2022/12/29 03:49:30;;;;;;;4.53;3.08;;;10.20;99.90;;;;;;4985258;28;20206;-70
2022/12/29 03:51:58;;;;;;;3.13;2.88;;;10.20;99.90;;;;;;5017027;28;20289;-70
2022/12/29 03:54:25;;;;;;;2.75;2.53;;;10.20;99.90;;;;;;5003243;28;20248;-70
2022/12/29 03:56:52;;;;;;;3.13;2.83;;;10.20;99.90;;;;;;5014995;28;20344;-70
2022/12/29 03:59:19;;;;;;;3.20;2.15;;;10.20;99.90;;;;;;5001482;28;20417;-70
2022/12/29 04:01:46;;;;;;;3.15;2.65;;;10.20;99.90;;;;;;5008398;28;20940;-70
2022/12/29 04:04:13;;;;;;;2.60;2.20;;;10.20;99.90;;;;;;4988553;28;20229;-70
2022/12/29 04:06:40;;;;;;;2.92;2.00;;;10.20;99.90;;;;;;5007440;28;20254;-70
2022/12/29 04:09:10;;;;;;;2.55;2.13;;;10.10;99.90;;;;;;5007297;28;20450;-70
2022/12/29 04:11:37;;;;;;;2.50;2.30;;;10.20;99.90;;;;;;5007026;28;20758;-70
2022/12/29 04:14:04;;;;;;;2.60;2.10;;;10.10;99.90;;;;;;5009419;28;20293;-70
2022/12/29 04:16:30;;;;;;;2.20;1.98;;;10.20;99.90;;;;;;5020648;28;20742;-70
2022/12/29 04:18:57;;;;;;;2.72;2.15;;;10.20;99.90;;;;;;4987400;28;20300;-70
2022/12/29 04:21:24;;;;;;;2.20;2.00;;;10.20;99.90;;;;;;5004458;28;20210;-70
2022/12/29 04:23:51;;;;;;;4.78;2.20;;;10.20;99.90;;;;;;5006658;28;20256;-70
2022/12/29 04:26:19;;;;;;;2.45;2.25;;;10.20;99.90;;;;;;5007622;28;20288;-70
2022/12/29 04:28:46;;;;;;;2.53;2.33;;;10.20;99.90;;;;;;5020962;28;20282;-70
2022/12/29 04:31:13;;;;;;;2.38;2.17;;;10.20;99.90;;;;;;4993483;28;20313;-70
2022/12/29 04:33:40;;;;;;;3.00;2.80;;;10.20;99.90;;;;;;5011717;28;20297;-70
2022/12/29 04:36:07;;;;;;;2.88;2.67;;;10.20;99.90;;;;;;5004890;28;20712;-70
2022/12/29 04:38:34;;;;;;;2.10;2.00;;;10.20;99.90;;;;;;5014125;28;20285;-70
2022/12/29 04:41:02;;;;;;;2.38;2.17;;;10.20;99.90;;;;;;4995786;28;21328;-70
2022/12/29 04:43:30;;;;;;;5.68;2.40;;;10.30;99.90;;;;;;5021112;28;20322;-70
2022/12/29 04:45:57;;;;;;;2.80;2.40;;;10.30;99.90;;;;;;4991551;28;20324;-70
2022/12/29 04:48:24;;;;;;;1.70;1.60;;;10.30;99.90;;;;;;5021090;28;20321;-70
2022/12/29 04:50:51;;;;;;;2.92;2.00;;;10.30;99.90;;;;;;4990574;28;20292;-70
2022/12/29 04:53:18;;;;;;;2.05;1.85;;;10.40;99.90;;;;;;5013674;28;20303;-70
2022/12/29 04:55:48;;;;;;;2.30;1.83;;;10.30;99.90;;;;;;4999432;28;20344;-70
2022/12/29 04:58:15;;;;;;;2.03;1.83;;;10.30;99.90;;;;;;5015739;28;20278;-70
2022/12/29 05:00:44;;;;;;;2.13;1.92;;;10.40;99.90;;;;;;5012289;28;20303;-70
2022/12/29 05:03:10;;;;;;;1.83;1.67;;;10.40;99.90;;;;;;5013754;28;20668;-70
2022/12/29 05:05:37;;;;;;;2.70;1.58;;;10.40;99.90;;;;;;4993114;28;20300;-70
2022/12/29 05:08:05;;;;;;;1.80;1.70;;;10.40;99.90;;;;;;5007313;28;20384;-70
2022/12/29 05:10:31;;;;;;;1.80;1.52;;;10.30;99.90;;;;;;5011419;28;20301;-69
2022/12/29 05:12:59;;;;;;;1.50;1.40;;;10.30;99.90;;;;;;5003761;28;20289;-70
2022/12/29 05:15:26;;;;;;;1.83;1.25;;;10.30;99.90;;;;;;5021866;28;20209;-70
2022/12/29 05:17:54;;;;;;;1.50;1.20;;;10.20;99.90;;;;;;4989790;28;20254;-70
2022/12/29 05:20:21;;;;;;;2.47;1.10;;;10.30;99.90;;;;;;4997696;28;20751;-70
2022/12/29 05:22:48;;;;;;;1.48;1.05;;;10.30;99.90;;;;;;5003631;28;20862;-70
2022/12/29 05:25:15;;;;;;;2.30;1.17;;;10.30;99.90;;;;;;5013507;28;20202;-70
2022/12/29 05:27:42;;;;;;;3.00;1.38;;;10.30;99.90;;;;;;5009724;28;20289;-70
2022/12/29 05:30:10;;;;;;;0.85;0.80;;;10.30;99.90;;;;;;5017357;28;20205;-70
2022/12/29 05:32:37;;;;;;;1.08;0.98;;;10.30;99.90;;;;;;5015208;28;20292;-70
2022/12/29 05:35:06;;;;;;;1.98;1.00;;;10.30;99.90;;;;;;5013302;28;20681;-70
2022/12/29 05:37:33;;;;;;;1.23;1.08;;;10.30;99.90;;;;;;4981072;28;20306;-70
2022/12/29 05:40:00;;;;;;;0.95;0.85;;;10.30;99.90;;;;;;5004531;28;20210;-71
2022/12/29 05:42:27;;;;;;;1.48;0.75;;;10.30;99.90;;;;;;4996060;28;20209;-70
2022/12/29 05:44:53;;;;;;;0.80;0.65;;;10.30;99.90;;;;;;5016186;28;20206;-69
2022/12/29 05:47:20;;;;;;;2.45;1.08;;;10.30;99.90;;;;;;5015486;28;20290;-70
2022/12/29 05:49:47;;;;;;;1.63;1.20;;;10.30;99.90;;;;;;5009614;28;20747;-70
2022/12/29 05:52:15;;;;;;;0.70;0.70;;;10.20;99.90;;;;;;4985336;28;20312;-70
2022/12/29 05:54:42;;;;;;;0.88;0.88;;;10.30;99.90;;;;;;5019655;28;20292;-70
2022/12/29 05:57:09;;;;;;;1.70;0.85;;;10.20;99.90;;;;;;4999591;28;20336;-70
2022/12/29 05:59:36;;;;;;;1.50;1.02;;;10.20;99.90;;;;;;5020880;28;20212;-69
2022/12/29 06:02:03;;;;;;;2.47;0.80;;;10.20;99.90;;;;;;5004785;28;20309;-70
2022/12/29 06:04:30;;;;;;;2.10;0.93;;;10.20;99.90;;;;;;5007028;28;20307;-69
2022/12/29 06:06:57;;;;;;;2.17;0.75;;;10.20;99.90;;;;;;4998139;28;22614;-70
2022/12/29 06:09:25;;;;;;;1.80;0.80;;;10.20;99.90;;;;;;4970524;28;20213;-70
2022/12/29 06:11:52;;;;;;;0.75;0.75;;;10.10;99.90;;;;;;4991031;28;20327;-69
2022/12/29 06:14:19;;;;;;;1.33;0.80;;;10.00;99.90;;;;;;4987725;28;20388;-70
2022/12/29 06:16:45;;;;;;;0.85;0.80;;;10.00;99.90;;;;;;4999776;28;20345;-69
2022/12/29 06:19:12;;;;;;;1.02;0.90;;;10.00;99.90;;;;;;4992573;28;20220;-70
2022/12/29 06:21:39;;;;;;;0.80;0.80;;;10.00;99.90;;;;;;4989315;28;20864;-70
2022/12/29 06:24:07;;;;;;;1.00;0.70;;;10.00;99.90;;;;;;4963912;28;20220;-70
2022/12/29 06:26:35;;;;;;;0.60;0.60;;;9.90;99.90;;;;;;4993923;28;20222;-70
2022/12/29 06:29:02;;;;;;;0.80;0.80;;;9.90;99.90;;;;;;4988953;28;20229;-69
2022/12/29 06:31:29;;;;;;;2.55;1.00;;;9.90;99.90;;;;;;4991583;28;20360;-70
2022/12/29 06:33:56;;;;;;;0.80;0.80;;;9.90;99.90;;;;;;4992680;28;21161;-70
2022/12/29 06:36:23;;;;;;;1.30;0.75;;;9.90;99.90;;;;;;4983403;28;20305;-70
2022/12/29 06:38:52;;;;;;;2.25;0.82;;;9.80;99.90;;;;;;4970030;28;20375;-70
2022/12/29 06:41:19;;;;;;;3.22;1.00;;;9.90;99.90;;;;;;4995487;28;20197;-70
2022/12/29 06:43:47;;;;;;;1.48;0.90;;;9.80;99.90;;;;;;4999880;28;20198;-69
2022/12/29 06:46:14;;;;;;;1.70;1.10;;;9.80;99.90;;;;;;4984780;28;20225;-69
2022/12/29 06:48:42;;;;;;;1.33;1.00;;;9.80;99.90;;;;;;4993354;28;20327;-70
2022/12/29 06:51:08;;;;;;;3.05;0.80;;;9.90;99.90;;;;;;4954802;28;20631;-70
2022/12/29 06:53:35;;;;;;;3.53;1.10;;;9.80;99.90;;;;;;4987232;28;20702;-70
2022/12/29 06:56:02;;;;;;;2.95;0.93;;;9.80;99.90;;;;;;4957426;28;20233;-69
2022/12/29 06:58:29;;;;;;;3.13;1.00;;;9.80;99.90;;;;;;4997216;28;20381;-70
2022/12/29 07:00:57;;;;;;;8.23;0.70;;;9.80;99.90;;;;;;4987669;28;20319;-69
2022/12/29 07:03:25;;;;;;;2.75;0.75;;;9.80;99.90;;;;;;4982430;28;20206;-69
2022/12/29 07:05:52;;;;;;;1.25;0.90;;;9.80;99.90;;;;;;4997060;28;20209;-69
2022/12/29 07:08:18;;;;;;;0.88;0.80;;;9.80;99.90;;;;;;4975766;28;20849;-69
2022/12/29 07:10:46;;;;;;;4.97;1.48;;;9.70;99.90;;;;;;4976509;28;20308;-69
2022/12/29 07:13:13;;;;;;;3.22;1.13;;;9.70;99.90;;;;;;5010499;28;20342;-68
2022/12/29 07:15:39;;;;;;;1.15;0.90;;;9.70;99.90;;;;;;5000654;28;20360;-69
2022/12/29 07:18:08;;;;;;;2.33;0.93;;;9.70;99.90;;;;;;5014774;28;20427;-69
2022/12/29 07:20:34;;;;;;;4.32;1.25;;;9.70;99.90;;;;;;5015064;28;20296;-69
2022/12/29 07:23:01;;;;;;;3.67;1.15;;;9.70;99.90;;;;;;5005945;28;20637;-69
2022/12/29 07:25:29;;;;;;;1.20;1.10;;;10.90;99.90;;;;;;4984351;28;20230;-69
2022/12/29 07:27:56;;;;;;;1.45;1.00;;;9.70;99.90;;;;;;5015415;28;20308;-69
2022/12/29 07:30:23;;;;;;;4.88;1.35;;;9.70;99.90;;;;;;4993372;28;20205;-69
2022/12/29 07:32:49;;;;;;;4.53;1.27;;;9.70;99.90;;;;;;5006438;28;20288;-69
2022/12/29 07:35:17;;;;;;;2.08;0.90;;;9.80;99.90;;;;;;5022623;28;20284;-69
2022/12/29 07:37:44;;;;;;;1.33;0.77;;;9.80;99.90;;;;;;5005420;28;20345;-69
2022/12/29 07:40:12;;;;;;;1.10;0.57;;;9.70;99.90;;;;;;5007917;28;20209;-69
2022/12/29 07:42:39;;;;;;;4.25;1.00;;;9.80;99.90;;;;;;4987774;28;21025;-69
2022/12/29 07:45:07;;;;;;;1.95;0.77;;;9.80;99.90;;;;;;5005967;28;21149;-69
2022/12/29 07:47:34;;;;;;;6.93;1.38;;;9.80;99.90;;;;;;5004224;28;20627;-69
2022/12/29 07:50:01;;;;;;;3.55;1.05;;;9.90;99.90;;;;;;5017668;28;20233;-69
2022/12/29 07:52:29;;;;;;;3.53;1.00;;;9.90;99.90;;;;;;5005727;28;20296;-69
2022/12/29 07:54:56;;;;;;;1.58;1.00;;;9.90;99.90;;;;;;5019054;28;20349;-69
2022/12/29 07:57:23;;;;;;;3.72;1.33;;;9.90;99.90;;;;;;4984117;28;20282;-69
2022/12/29 07:59:50;;;;;;;1.67;1.52;;;9.90;99.90;;;;;;5006460;28;20320;-69
2022/12/29 08:02:16;;;;;;;7.95;1.27;;;9.90;99.90;;;;;;4995001;28;20312;-69
2022/12/29 08:04:43;;;;;;;3.50;1.15;;;10.00;99.90;;;;;;5003056;28;20356;-69
2022/12/29 08:07:10;;;;;;;3.67;0.95;;;10.00;99.90;;;;;;5003738;28;20257;-69
2022/12/29 08:09:38;;;;;;;1.05;0.88;;;10.00;99.90;;;;;;5017681;28;20328;-69
2022/12/29 08:12:05;;;;;;;0.95;0.80;;;9.90;99.90;;;;;;4986436;28;20210;-69
2022/12/29 08:14:32;;;;;;;4.15;1.25;;;9.90;99.90;;;;;;5015762;28;20313;-69
2022/12/29 08:16:59;;;;;;;5.32;1.10;;;9.90;99.90;;;;;;5007147;28;20286;-69
2022/12/29 08:19:26;;;;;;;3.25;0.88;;;10.00;99.90;;;;;;5000406;28;20801;-69
2022/12/29 08:21:54;;;;;;;5.45;1.15;;;10.00;99.90;;;;;;4990111;28;20219;-69
2022/12/29 08:24:21;;;;;;;3.47;1.27;;;10.00;99.90;;;;;;5009426;28;20206;-69
2022/12/29 08:26:49;;;;;;;4.63;1.40;;;9.50;99.90;;;;;;4984215;28;20206;-69
2022/12/29 08:29:16;;;;;;;6.43;1.25;;;10.00;99.90;;;;;;5009796;28;20450;-69
2022/12/29 08:31:43;;;;;;;2.95;1.58;;;9.90;99.90;;;;;;4993753;28;20253;-69
2022/12/29 08:34:10;;;;;;;3.38;1.15;;;10.00;99.90;;;;;;4992965;28;20222;-69
2022/12/29 08:36:37;;;;;;;1.73;1.00;;;10.00;99.90;;;;;;4989960;28;20612;-69
2022/12/29 08:39:04;;;;;;;1.92;1.20;;;10.00;99.90;;;;;;5002222;28;20257;-69
2022/12/29 08:41:31;;;;;;;3.78;1.10;;;10.00;99.90;;;;;;4998053;28;20308;-69
2022/12/29 08:43:59;;;;;;;2.10;1.23;;;10.00;99.90;;;;;;4980709;28;20316;-69
2022/12/29 08:46:26;;;;;;;2.22;0.93;;;10.00;99.90;;;;;;5005264;28;21403;-69
2022/12/29 08:48:53;;;;;;;4.63;1.05;;;10.00;99.90;;;;;;5001658;28;20628;-69
2022/12/29 08:51:20;;;;;;;2.83;0.90;;;10.00;99.90;;;;;;4998086;28;20209;-69
2022/12/29 08:53:47;;;;;;;4.00;1.30;;;10.00;99.90;;;;;;4999118;28;20286;-69
2022/12/29 08:56:14;;;;;;;6.13;1.55;;;10.10;99.90;;;;;;5006144;28;20307;-69
2022/12/29 08:58:41;;;;;;;10.63;1.73;;;10.00;99.90;;;;;;4971442;28;21096;-69
2022/12/29 09:01:10;;;;;;;4.85;1.05;;;10.00;99.90;;;;;;5002813;28;20229;-69
2022/12/29 09:03:37;;;;;;;2.58;1.65;;;10.00;99.90;;;;;;4996411;28;20352;-69
2022/12/29 09:06:04;;;;;;;5.38;1.40;;;10.00;99.90;;;;;;4998399;28;20403;-69
2022/12/29 09:08:31;;;;;;;4.15;1.30;;;10.00;99.90;;;;;;4992429;28;20324;-69
2022/12/29 09:11:07;;;;;;;5.82;1.13;;;10.00;99.90;;;;;;5011956;28;20816;-69
2022/12/29 09:13:34;;;;;;;4.30;1.13;;;10.00;99.90;;;;;;4971095;28;21606;-69
2022/12/29 09:16:01;;;;;;;4.55;1.58;;;10.00;99.90;;;;;;4986624;28;20373;-69
2022/12/29 09:18:30;;;;;;;5.65;1.45;;;10.00;99.90;;;;;;5006835;28;20376;-69
2022/12/29 09:20:58;;;;;;;5.22;1.17;;;10.10;99.90;;;;;;4986355;28;20601;-69
2022/12/29 09:23:26;;;;;;;4.28;1.00;;;10.00;99.90;;;;;;4997037;28;20206;-69
2022/12/29 09:25:52;;;;;;;2.97;1.10;;;10.00;99.90;;;;;;5000750;28;20225;-69
2022/12/29 09:28:20;;;;;;;2.88;1.20;;;10.00;99.90;;;;;;5009012;28;20292;-69
2022/12/29 09:30:46;;;;;;;2.03;1.00;;;10.00;99.90;;;;;;4971703;28;20239;-69
2022/12/29 09:33:13;;;;;;;6.13;1.08;;;10.00;99.90;;;;;;4998803;28;20271;-68
2022/12/29 09:35:44;;;;;;;4.78;1.02;;;10.00;99.90;;;;;;4997062;28;20330;-69
2022/12/29 09:38:12;;;;;;;2.80;1.30;;;10.00;99.90;;;;;;4996575;28;20282;-69
2022/12/29 09:40:40;;;;;;;4.97;1.05;;;10.00;99.90;;;;;;5010102;28;20344;-69
2022/12/29 09:43:28;;;;;;;2.45;1.00;;;10.00;99.90;;;;;;4980381;28;20321;-69
2022/12/29 09:46:04;;;;;;;2.55;0.98;;;10.00;99.90;;;;;;4968149;28;20291;-69
2022/12/29 09:48:35;;;;;;;4.88;1.23;;;10.00;99.90;;;;;;4988543;28;20359;-69
2022/12/29 09:51:11;;;;;;;4.47;1.30;;;10.00;99.90;;;;;;5001899;28;20318;-69
2022/12/29 09:53:42;;;;;;;6.03;1.10;;;10.00;99.90;;;;;;4988529;28;20225;-70
2022/12/29 09:56:16;;;;;;;9.40;1.75;;;10.00;99.90;;;;;;5003146;28;20296;-70
2022/12/29 09:58:49;;;;;;;5.93;1.13;;;10.00;99.90;;;;;;5000820;28;20340;-70
2022/12/29 10:01:28;;;;;;;3.38;1.00;;;10.10;99.90;;;;;;4972785;28;20221;-70
2022/12/29 10:03:57;;;;;;;4.78;1.40;;;10.10;99.90;;;;;;4985171;28;20383;-70
2022/12/29 10:06:32;;;;;;;4.53;1.30;;;10.10;99.90;;;;;;5009242;28;20321;-69
2022/12/29 10:09:05;;;;;;;9.00;1.40;;;10.10;99.90;;;;;;4990300;28;20656;-70
2022/12/29 10:11:49;;;;;;;4.30;1.10;;;10.10;99.90;;;;;;4999811;28;20249;-68
2022/12/29 10:14:34;;;;;;;4.63;1.05;;;10.00;99.90;;;;;;5005550;28;20875;-69
2022/12/29 10:17:11;;;;;;;3.08;1.05;;;9.90;99.90;;;;;;4957648;28;20226;-70
2022/12/29 10:19:54;;;;;;;4.10;1.23;;;10.00;99.90;;;;;;4999695;28;20235;-69
2022/12/29 10:22:33;;;;;;;4.60;1.10;;;10.00;99.90;;;;;;4984898;28;20340;-69
2022/12/29 10:25:04;;;;;;;8.43;1.20;;;10.00;99.90;;;;;;4999194;28;20205;-69
2022/12/29 10:27:33;;;;;;;3.22;1.00;;;10.00;99.90;;;;;;4986894;28;20672;-69
2022/12/29 10:30:02;;;;;;;5.32;1.35;;;10.00;99.90;;;;;;5023021;28;20906;-69
2022/12/29 10:32:36;;;;;;;6.65;0.93;;;10.00;99.90;;;;;;4969831;28;20958;-69
2022/12/29 10:35:11;;;;;;;3.80;1.10;;;10.00;99.90;;;;;;5003683;28;20236;-69
2022/12/29 10:37:44;;;;;;;2.88;1.13;;;10.00;99.90;;;;;;4998096;28;20262;-69
2022/12/29 10:40:24;;;;;;;5.07;1.20;;;10.00;99.90;;;;;;4997414;28;20379;-68
2022/12/29 10:42:54;;;;;;;6.07;0.90;;;10.00;99.90;;;;;;4993460;28;20252;-69
2022/12/29 10:45:25;;;;;;;2.65;0.93;;;10.00;99.90;;;;;;4994759;28;20406;-68
2022/12/29 10:47:58;;;;;;;7.10;1.25;;;10.00;99.90;;;;;;4973350;28;21405;-69
2022/12/29 10:50:26;;;;;;;2.25;0.75;;;10.00;99.90;;;;;;4990500;28;20229;-68
2022/12/29 10:52:57;;;;;;;5.78;1.58;;;10.00;99.90;;;;;;4996695;28;20317;-69
2022/12/29 10:55:28;;;;;;;4.63;1.08;;;10.00;99.90;;;;;;4996118;28;20256;-69
2022/12/29 10:57:58;;;;;;;3.08;1.08;;;10.00;99.90;;;;;;4994735;28;20255;-69
2022/12/29 11:00:24;;;;;;;6.55;1.40;;;10.00;99.90;;;;;;5005172;28;20216;-68
2022/12/29 11:03:13;;;;;;;2.78;1.30;;;10.00;99.90;;;;;;4976629;28;20312;-69
2022/12/29 11:05:46;;;;;;;4.03;0.90;;;10.00;99.90;;;;;;4997991;28;20302;-69
2022/12/29 11:08:17;;;;;;;4.35;1.23;;;10.00;99.90;;;;;;4997581;28;21144;-69
2022/12/29 11:10:46;;;;;;;5.95;1.63;;;10.00;99.90;;;;;;4993432;28;21259;-69
2022/12/29 11:13:15;;;;;;;2.55;0.90;;;9.90;99.90;;;;;;5005434;28;20230;-69
2022/12/29 11:15:44;;;;;;;4.18;1.38;;;9.90;99.90;;;;;;4984310;28;20233;-69
2022/12/29 11:18:23;;;;;;;2.05;0.77;;;10.00;99.90;;;;;;5010476;28;20756;-69
2022/12/29 11:20:51;;;;;;;5.63;1.13;;;10.00;99.90;;;;;;4991308;28;20331;-69
2022/12/29 11:23:33;;;;;;;2.92;0.93;;;9.90;99.90;;;;;;5017805;28;20198;-69
2022/12/29 11:26:17;;;;;;;6.07;1.30;;;9.90;99.90;;;;;;4978394;28;20389;-69
2022/12/29 11:28:47;;;;;;;3.72;1.00;;;9.80;99.90;;;;;;4998112;28;20308;-69
2022/12/29 11:31:18;;;;;;;4.13;1.25;;;9.90;99.90;;;;;;4984018;28;21310;-69
2022/12/29 11:33:45;;;;;;;2.80;1.17;;;9.90;99.90;;;;;;5003176;28;20289;-69
2022/12/29 11:36:17;;;;;;;3.53;1.10;;;9.90;99.90;;;;;;4980083;28;20213;-69
2022/12/29 11:38:50;;;;;;;5.50;1.40;;;10.00;99.90;;;;;;4969205;28;20237;-69
2022/12/29 11:41:23;;;;;;;5.97;0.95;;;9.90;99.90;;;;;;5005607;28;20213;-70
2022/12/29 11:43:50;;;;;;;1.90;0.88;;;9.90;99.90;;;;;;4993119;28;20387;-69
2022/12/29 11:46:20;;;;;;;2.85;1.10;;;9.90;99.90;;;;;;4996179;28;20833;-69
2022/12/29 11:48:48;;;;;;;5.90;1.20;;;9.90;99.90;;;;;;5005853;28;20608;-69
2022/12/29 11:51:23;;;;;;;3.13;1.40;;;9.90;99.90;;;;;;4979055;28;20224;-69
2022/12/29 11:53:54;;;;;;;3.15;1.00;;;10.00;99.90;;;;;;4997168;28;20209;-69
2022/12/29 11:56:33;;;;;;;5.13;1.38;;;9.90;99.90;;;;;;4982761;28;20316;-70
2022/12/29 11:59:38;;;;;;;3.08;1.02;;;9.90;99.90;;;;;;4995119;28;20229;-70
2022/12/29 12:02:27;;;;;;;6.35;1.42;;;10.00;99.90;;;;;;4983263;28;20701;-69
2022/12/29 12:05:02;;;;;;;6.18;1.27;;;11.00;99.90;;;;;;4964012;28;20233;-69
2022/12/29 12:07:39;;;;;;;2.45;1.00;;;10.10;99.90;;;;;;5001339;28;20331;-69
2022/12/29 12:10:16;;;;;;;5.97;1.40;;;10.10;99.90;;;;;;4965109;28;20239;-69
2022/12/29 12:12:49;;;;;;;4.53;1.17;;;10.10;99.90;;;;;;5000003;28;20675;-69
2022/12/29 12:15:21;;;;;;;4.50;1.40;;;10.10;99.90;;;;;;5002668;28;20212;-69
2022/12/29 12:17:54;;;;;;;5.57;1.17;;;10.10;99.90;;;;;;5001407;28;20296;-69
2022/12/29 12:20:23;;;;;;;7.10;1.58;;;10.00;99.90;;;;;;4988620;28;20239;-69
2022/12/29 12:23:02;;;;;;;5.53;1.17;;;10.00;99.90;;;;;;4998522;28;20225;-69
2022/12/29 12:25:35;;;;;;;3.92;1.52;;;10.00;99.90;;;;;;4991942;28;20778;-69
2022/12/29 12:28:11;;;;;;;4.32;1.27;;;10.00;99.90;;;;;;4979975;28;20256;-69
2022/12/29 12:30:47;;;;;;;4.47;1.27;;;10.00;99.90;;;;;;5002580;28;20225;-68
2022/12/29 12:33:23;;;;;;;5.53;1.20;;;10.00;99.90;;;;;;5000364;28;21215;-69
2022/12/29 12:36:05;;;;;;;9.27;1.92;;;10.00;99.90;;;;;;4990314;28;21351;-69
2022/12/29 12:38:43;;;;;;;1.20;0.85;;;10.00;99.90;;;;;;4997742;28;20376;-69
2022/12/29 12:41:16;;;;;;;2.35;0.75;;;10.10;99.90;;;;;;4998647;28;20297;-69
2022/12/29 12:43:46;;;;;;;4.28;1.50;;;10.10;99.90;;;;;;4996446;28;20234;-70
2022/12/29 12:46:42;;;;;;;9.05;1.15;;;10.10;99.90;;;;;;4994102;28;20336;-69
2022/12/29 12:49:35;;;;;;;4.55;1.30;;;10.10;99.90;;;;;;4991821;28;20951;-69
2022/12/29 12:52:10;;;;;;;3.60;1.08;;;10.10;99.90;;;;;;4964609;28;20351;-69
2022/12/29 12:54:54;;;;;;;4.45;1.30;;;10.10;99.90;;;;;;5009525;28;20226;-69
2022/12/29 12:57:32;;;;;;;3.65;1.10;;;10.10;99.90;;;;;;4983768;28;20726;-69
2022/12/29 13:00:05;;;;;;;2.33;0.80;;;10.10;99.90;;;;;;4988301;28;20239;-69
2022/12/29 13:02:50;;;;;;;3.50;0.75;;;10.00;99.90;;;;;;4994247;28;20202;-69
2022/12/29 13:05:35;;;;;;;5.13;1.08;;;10.00;99.90;;;;;;4989176;28;20249;-69
2022/12/29 13:08:32;;;;;;;2.72;1.15;;;9.90;99.90;;;;;;4966033;28;21452;-69
2022/12/29 13:11:08;;;;;;;4.80;0.80;;;9.70;99.90;;;;;;5002355;28;20481;-69
2022/12/29 13:13:59;;;;;;;5.28;1.58;;;9.50;99.90;;;;;;4985594;28;20206;-69
2022/12/29 13:16:35;;;;;;;4.78;1.08;;;9.10;99.90;;;;;;5001988;28;20210;-69
2022/12/29 13:19:09;;;;;;;4.55;0.88;;;9.00;99.90;;;;;;4999542;28;21517;-69
2022/12/29 13:21:51;;;;;;;3.67;1.10;;;8.80;99.90;;;;;;4989385;28;20198;-69
2022/12/29 13:24:27;;;;;;;1.90;1.10;;;8.80;99.90;;;;;;5005101;28;20279;-69
2022/12/29 13:27:00;;;;;;;4.78;1.17;;;8.70;99.90;;;;;;4998336;28;20451;-69
2022/12/29 13:29:34;;;;;;;7.60;3.42;;;8.80;99.90;;;;;;4999216;28;20742;-70
2022/12/29 13:32:15;;;;;;;3.83;1.23;;;8.70;99.90;;;;;;4991857;28;20240;-70
2022/12/29 13:34:52;;;;;;;4.70;0.80;;;8.70;99.90;;;;;;4998882;28;20210;-69
2022/12/29 13:37:22;;;;;;;3.10;1.03;;;8.70;99.90;;;;;;4986981;28;20326;-69
2022/12/29 13:39:55;;;;;;;3.30;0.80;;;8.70;99.90;;;;;;5007160;28;20233;-69
2022/12/29 13:42:24;;;;;;;3.60;1.17;;;8.80;99.90;;;;;;5002499;28;20206;-69
2022/12/29 13:44:58;;;;;;;4.32;1.13;;;8.90;99.90;;;;;;4986473;28;20231;-69